Terminal Aerodrome Forecast
Issued by NWS

Home | Current Version | Previous Version | Text Only | Print | Product List | Glossary On
Versions: 1 2 3 4 5 6 7 8 9 10 11 12 13 14 15 16 17
000
FTUS43 KOAX 200945 AAA
TAFBFF
TAF AMD
KBFF 200945Z 2010/2106 29017G30KT P6SM BKN250
     FM201600 29025G35KT P6SM SCT250
     FM210000 29018G26KT P6SM BKN250=

USA.gov is the U.S. government's official web portal to all federal, state and local government web resources and services.